Flight Track Log - Related Links

Times and Time Zones

All times are in EDT time to prevent confusion due to time zone crossing. See the AAY894 flight status page for this flight to view local times or setup timezone preferences in your user account.

Time Position Orientation Groundspeed Altitude Reporting Facility
EDT Latitude Longitude Course Direction KTS MPH feet Rate Location/Type
Thu 07:42:03 AM 27.9333 -82.7000 24° Northeast 170 196 700  Level Tampa TRACON
Thu 07:42:45 AM 27.9667 -82.6833 24° Northeast 206 237 1,400 2,032 Climbing Tampa TRACON
Thu 07:45:12 AM 28.1264 -82.6611 North 267 307 7,100 2,452 Climbing Miami Center
Thu 07:46:13 AM 28.2075 -82.6600 North 282 325 9,900 2,262 Climbing Miami Center
Thu 07:47:14 AM 28.2914 -82.6633 358° North 292 336 11,700 1,563 Climbing Miami Center
Thu 07:48:12 AM 28.3958 -82.6636 360° North 321 369 13,000 1,576 Climbing Jacksonville Center
Thu 07:49:12 AM 28.5067 -82.6658 359° North 364 419 14,800 2,000 Climbing Jacksonville Center
Thu 07:50:12 AM 28.6192 -82.6678 359° North 391 450 17,000 1,850 Climbing Jacksonville Center
Thu 07:51:12 AM 28.7342 -82.6700 359° North 404 465 18,500 1,550 Climbing Jacksonville Center
Thu 07:52:12 AM 28.8572 -82.6675 North 417 480 20,100 1,600 Climbing Jacksonville Center
Thu 07:53:12 AM 28.9803 -82.6694 359° North 429 494 21,700 1,600 Climbing Jacksonville Center
Thu 07:54:12 AM 29.1056 -82.6717 359° North 441 507 23,300 1,500 Climbing Jacksonville Center
Thu 07:55:12 AM 29.2331 -82.6711 360° North 441 507 24,700 1,450 Climbing Jacksonville Center
Thu 07:56:12 AM 29.3603 -82.6733 359° North 446 513 26,200 1,650 Climbing Jacksonville Center
Thu 07:57:12 AM 29.5022 -82.6778 358° North 446 513 28,000 1,650 Climbing Jacksonville Center
Thu 07:58:12 AM 29.6275 -82.6800 359° North 448 516 29,500 1,350 Climbing Jacksonville Center
Thu 07:59:12 AM 29.7486 -82.6819 359° North 443 510 30,700 1,050 Climbing Jacksonville Center
Thu 08:00:12 AM 29.8697 -82.6817 360° North 436 502 31,600 900 Climbing Jacksonville Center
Thu 08:01:12 AM 29.9908 -82.6839 359° North 431 496 32,500 700 Climbing Jacksonville Center
Thu 08:02:12 AM 30.1139 -82.6789 North 438 504 33,000 250 Climbing Jacksonville Center
Thu 08:03:12 AM 30.2372 -82.6811 359° North 438 504 33,000  Level Jacksonville Center
Thu 08:04:12 AM 30.3583 -82.6831 359° North 438 504 33,000 -50 Level Jacksonville Center
Thu 08:05:12 AM 30.4794 -82.6828 360° North 438 504 32,900 -50 Descending Jacksonville Center
Thu 08:06:12 AM 30.5961 -82.6706 North 432 497 32,900  Level Jacksonville Center
Thu 08:07:12 AM 30.7172 -82.6533 North 432 497 32,900  Level Jacksonville Center
Thu 08:08:12 AM 30.8364 -82.6311 North 432 497 32,900  Level Jacksonville Center
Thu 08:09:12 AM 30.9553 -82.6117 North 427 491 32,900 50 Level Jacksonville Center
Thu 08:10:12 AM 31.0469 -82.5967 North 427 491 33,000  Climbing Jacksonville Center
Thu 08:11:12 AM 31.1764 -82.5719 North 427 491 32,900 -50 Descending Jacksonville Center
Thu 08:12:12 AM 31.2933 -82.5547 North 427 491 32,900 50 Level Jacksonville Center
Thu 08:13:12 AM 31.4144 -82.5297 10° North 432 497 33,000 50 Climbing Jacksonville Center
Thu 08:14:12 AM 31.5333 -82.5075 North 432 497 33,000  Level Jacksonville Center
Thu 08:15:12 AM 31.6564 -82.4875 North 432 497 33,000  Level Jacksonville Center
Thu 08:16:11 AM 31.7908 -82.4728 North 471 542 33,000  Level Atlanta Center
Thu 08:17:11 AM 31.8992 -82.4511 10° North 449 517 33,000  Level Atlanta Center
Thu 08:18:11 AM 32.0200 -82.4319 North 439 505 33,000  Level Atlanta Center
Thu 08:19:11 AM 32.1408 -82.4100 North 433 498 33,000  Level Atlanta Center
Thu 08:20:11 AM 32.2742 -82.3931 North 426 490 33,000  Level Atlanta Center
Thu 08:21:11 AM 32.3928 -82.3686 10° North 426 490 33,000  Level Atlanta Center
Thu 08:22:11 AM 32.5136 -82.3517 North 431 496 33,000  Level Atlanta Center
Thu 08:23:11 AM 32.6364 -82.3344 North 431 496 33,000  Level Atlanta Center
Thu 08:24:11 AM 32.7592 -82.3097 10° North 431 496 33,000  Level Atlanta Center
Thu 08:25:11 AM 32.8800 -82.2925 North 437 503 33,000  Level Atlanta Center
Thu 08:26:11 AM 33.0008 -82.2753 North 437 503 33,000  Level Atlanta Center
Thu 08:27:11 AM 33.1239 -82.2531 North 442 509 33,000  Level Atlanta Center
Thu 08:28:11 AM 33.2425 -82.2356 North 442 509 33,000  Level Atlanta Center
Thu 08:29:11 AM 33.3633 -82.2158 North 442 509 33,000  Level Atlanta Center
Thu 08:30:11 AM 33.4861 -82.1956 North 437 503 33,000  Level Atlanta Center
Thu 08:31:11 AM 33.5964 -82.1758 North 442 509 33,000  Level Atlanta Center
Thu 08:32:11 AM 33.7192 -82.1558 North 442 509 33,000  Level Atlanta Center
Thu 08:33:11 AM 33.8422 -82.1356 North 442 509 33,000  Level Atlanta Center
Thu 08:34:11 AM 33.9650 -82.1153 North 442 509 33,000  Level Atlanta Center
Thu 08:35:11 AM 34.0856 -82.0925 North 442 509 33,000  Level Atlanta Center
Thu 08:36:11 AM 34.2061 -82.0619 12° North 442 509 33,000  Level Atlanta Center
Thu 08:37:11 AM 34.3247 -82.0317 12° North 442 509 33,000  Level Atlanta Center
Thu 08:38:11 AM 34.4453 -82.0011 12° North 442 509 33,000  Level Atlanta Center
Thu 08:39:11 AM 34.5658 -81.9753 10° North 442 509 33,000  Level Atlanta Center
Thu 08:40:11 AM 34.6883 -81.9444 12° North 442 509 33,000  Level Atlanta Center
Thu 08:41:11 AM 34.8089 -81.9164 11° North 448 516 33,000  Level Atlanta Center
Thu 08:42:11 AM 34.9294 -81.8878 11° North 443 510 33,000  Level Atlanta Center
Thu 08:43:11 AM 35.0561 -81.8542 12° North 438 504 33,000  Level Atlanta Center
Thu 08:44:11 AM 35.1747 -81.8256 11° North 432 497 33,000  Level Atlanta Center
Thu 08:45:11 AM 35.2972 -81.7942 12° North 432 497 33,000  Level Atlanta Center
Thu 08:46:11 AM 35.4175 -81.7606 13° North 432 497 33,000  Level Atlanta Center
Thu 08:47:11 AM 35.5400 -81.7289 12° North 437 503 33,000  Level Atlanta Center
Thu 08:48:11 AM 35.6625 -81.6975 12° North 442 509 33,000  Level Atlanta Center
Thu 08:49:11 AM 35.7869 -81.6631 13° North 448 516 33,000  Level Atlanta Center
Thu 08:50:11 AM 35.9075 -81.6289 13° North 447 514 33,000  Level Atlanta Center
Thu 08:51:11 AM 36.0278 -81.5997 11° North 447 514 33,000  Level Atlanta Center
Thu 08:52:11 AM 36.1503 -81.5650 13° North 442 509 33,000  Level Atlanta Center
Thu 08:53:11 AM 36.2706 -81.5331 12° North 442 509 33,000  Level Atlanta Center
Thu 08:54:11 AM 36.3928 -81.4983 13° North 442 509 33,000  Level Atlanta Center
Thu 08:55:11 AM 36.5111 -81.4661 12° North 447 514 33,000  Level Atlanta Center
Thu 08:56:11 AM 36.6333 -81.4336 12° North 447 514 33,000  Level Atlanta Center
Thu 08:58:08 AM 36.8706 -81.3697 12° North 457 526 33,000  Level Indianapolis Center
Thu 08:59:09 AM 36.9986 -81.3353 12° North 465 535 33,000  Level Indianapolis Center
Thu 09:00:13 AM 37.1261 -81.3017 12° North 467 537 33,000  Level Indianapolis Center
Thu 09:01:14 AM 37.2522 -81.2683 12° North 466 536 33,000  Level Indianapolis Center
Thu 09:02:15 AM 37.3767 -81.2342 12° North 464 534 33,000  Level Indianapolis Center
Thu 09:03:18 AM 37.5192 -81.1969 12° North 453 521 33,000  Level Indianapolis Center
Thu 09:04:19 AM 37.6328 -81.1653 12° North 448 516 33,000  Level Indianapolis Center
Thu 09:05:20 AM 37.7567 -81.1308 12° North 450 518 33,000  Level Indianapolis Center
Thu 09:06:24 AM 37.8808 -81.0961 12° North 454 522 33,000  Level Indianapolis Center
Thu 09:07:25 AM 38.0275 -81.0533 13° North 454 522 33,000  Level Indianapolis Center
Thu 09:08:26 AM 38.1503 -81.0175 13° North 454 522 33,000  Level Indianapolis Center
Thu 09:09:30 AM 38.2719 -81.0186 360° North 445 512 33,000  Level Indianapolis Center
Thu 09:10:30 AM 38.3928 -81.0231 358° North 440 506 33,000  Level Indianapolis Center
Thu 09:11:31 AM 38.5147 -81.0222 360° North 440 506 33,000  Level Indianapolis Center
Thu 09:12:35 AM 38.6364 -80.9828 14° North 450 518 33,000  Level Indianapolis Center
Thu 09:13:37 AM 38.7808 -80.9339 15° North 451 519 33,000  Level Indianapolis Center
Thu 09:14:37 AM 38.9003 -80.8928 15° North 450 518 33,000  Level Indianapolis Center
Thu 09:15:41 AM 39.0211 -80.8514 15° North 450 518 33,000  Level Indianapolis Center
Thu 09:16:42 AM 39.1414 -80.8106 15° North 450 518 33,000  Level Indianapolis Center
Thu 09:17:46 AM 39.2622 -80.7672 16° North 450 518 33,000  Level Indianapolis Center
Thu 09:18:47 AM 39.4075 -80.7108 17° North 450 518 33,000  Level Indianapolis Center
Thu 09:19:48 AM 39.5250 -80.6569 19° North 451 519 33,000  Level Indianapolis Center
Thu 09:20:51 AM 39.6444 -80.6039 19° North 451 519 33,000  Level Indianapolis Center
Thu 09:21:52 AM 39.7653 -80.5511 19° North 454 522 33,000  Level Indianapolis Center
Thu 09:23:01 AM 39.8983 -80.4903 19° North 453 521 33,000  Level Cleveland Center
Thu 09:24:03 AM 40.0164 -80.4364 19° North 452 520 33,000  Level Cleveland Center
Thu 09:25:06 AM 40.1486 -80.3414 29° Northeast 456 525 33,000  Level Cleveland Center
Thu 09:26:08 AM 40.2536 -80.2489 34° Northeast 459 528 33,000 -194 Level Cleveland Center
Thu 09:27:10 AM 40.3578 -80.1561 34° Northeast 458 527 32,600 -677 Descending Cleveland Center
Thu 09:28:12 AM 40.4667 -80.0608 34° Northeast 467 537 31,600 -774 Descending Cleveland Center
Thu 09:29:14 AM 40.5892 -79.9639 31° Northeast 460 529 31,000 -290 Descending Cleveland Center
Thu 09:30:16 AM 40.7092 -79.9175 16° North 455 524 31,000  Level Cleveland Center
Thu 09:31:18 AM 40.8278 -79.8769 15° North 447 514 31,000  Level Cleveland Center
Thu 09:32:20 AM 40.9469 -79.8350 15° North 444 511 31,000  Level Cleveland Center
Thu 09:33:23 AM 41.0658 -79.7925 15° North 444 511 31,000 -336 Level Cleveland Center
Thu 09:34:25 AM 41.1961 -79.7464 15° North 445 512 30,300 -823 Descending Cleveland Center
Thu 09:35:27 AM 41.3172 -79.7036 15° North 448 516 29,300 -1,065 Descending Cleveland Center
Thu 09:36:29 AM 41.4594 -79.6522 15° North 446 513 28,100 -1,016 Descending Cleveland Center
Thu 09:37:31 AM 41.5789 -79.6089 15° North 445 512 27,200 -968 Descending Cleveland Center
Thu 09:38:33 AM 41.6964 -79.5647 16° North 442 509 26,100 -1,016 Descending Cleveland Center
Thu 09:39:35 AM 41.8092 -79.5242 15° North 428 493 25,100 -968 Descending Cleveland Center
Thu 09:40:37 AM 41.9194 -79.4833 15° North 415 478 24,100 -912 Descending Cleveland Center
Thu 09:41:40 AM 42.0489 -79.4356 15° North 407 468 23,200 -1,008 Descending Cleveland Center
Thu 09:42:42 AM 42.1550 -79.3894 18° North 404 465 22,000 -1,500 Descending Cleveland Center
Thu 09:43:44 AM 42.2525 -79.3172 29° Northeast 401 461 20,100 -1,984 Descending Cleveland Center
Thu 09:44:46 AM 42.3472 -79.2481 28° Northeast 391 450 17,900 -2,129 Descending Cleveland Center
Thu 09:45:48 AM 42.4369 -79.1831 28° Northeast 371 427 15,700 -2,226 Descending Cleveland Center
Thu 09:46:50 AM 42.5292 -79.1153 28° Northeast 354 407 13,300 -2,081 Descending Cleveland Center
Thu 09:47:52 AM 42.6081 -79.0428 34° Northeast 345 397 11,400 -1,355 Descending Cleveland Center
Thu 09:48:54 AM 42.6792 -78.9794 33° Northeast 309 356 10,500 -1,452 Descending Cleveland Center
Thu 09:49:56 AM 42.7558 -78.9089 34° Northeast 281 323 8,400 -1,935 Descending Cleveland Center
Thu 09:50:58 AM 42.8164 -78.8528 34° Northeast 277 319 6,500 -1,548 Descending Cleveland Center
Thu 09:52:00 AM 42.8828 -78.7911 34° Northeast 277 319 5,200 -726 Descending Cleveland Center
Thu 09:53:02 AM 42.9486 -78.7319 33° Northeast 276 318 5,000 -97 Descending Cleveland Center
Thu 09:54:04 AM 43.0086 -78.7047 18° North 236 272 5,000 -774 Level Cleveland Center
Thu 09:55:06 AM 43.0742 -78.7117 356° North 227 261 3,400 -1,306 Descending Cleveland Center
Thu 09:56:08 AM 43.1097 -78.7639 313° West 212 244 2,300 -726 Descending Cleveland Center
Thu 09:57:10 AM 43.1086 -78.8300 269° West 171 197 1,900 -435 Descending Cleveland Center
Thu 09:58:12 AM 43.1086 -78.8797 270° West 153 176 1,400 -484 Descending Cleveland Center
Thu 10:00:00 AM 43.1000 -78.9333 270° West  Level FlightAware Approximate
Thu 10:07:00 AM 43.1076 -78.9458 270° West  Level Estimated

Login

Don't have an account? Register now (free) for customized features, flight alerts, and more!